Airfield :
LOGIN :

Register | Disclaimer

   EN    FR    IT 

 










Legend :    VFR   Marginal VFR   IFR   Intensive IFR   Very Intensive IFR
Visi :
Ceiling :
>= 8 km
>= 3000ft
5 to 8 km
1000 to 3000 ft
1500m to 5 km
500 to 1000 ft
800 to 1500m
200 to 500 ft
< 800m
< 200 ft
Symbols :   Thunderstorms  Fog  Heavy snow  Heavy precipitations  Wind > 20 kt
SIGMETs :     Misc.  Thunderstorms  Icing  Turbulence  Mountain Waves  Volcanic Ashes







- Airport Elevation : 782 ft
- IATA code : BGY


LIME - Orio al Serio International - Bergamo

CURRENT METAR :
  • 101820Z 33004KT 300V010 CAVOK 09/M07 Q1017 NOSIG

EXPIRED METARs :
  • 101750Z 29004KT CAVOK 09/M07 Q1017 NOSIG
  • 101720Z 29007KT CAVOK 09/M07 Q1017 NOSIG
  • 101650Z 31006KT CAVOK 10/M07 Q1017 NOSIG
  • 101620Z 30006KT CAVOK 11/M08 Q1017 NOSIG
  • 101550Z 31006KT 280V010 CAVOK 11/M08 Q1016 NOSIG

TAF TAF LIME
Valid from the 10 at 18:00 until the 11 at 18:00 UTC


101700Z 1018/1118 01005KT CAVOK
No reported NOTAMs for that airfield.
2 SIGMETs reported for the Milano FIR (LIMM) :
 
Severe turbulence
LIMM SIGMET 14 VALID 101540/101940 LIIP
LIMM MILANO FIR SEV TURB FCST ENTIRE FIR ABV FL220 STNR NC=
Severe turbulence
LIMM SIGMET 13 VALID 101515/101915 LIIP
LIMM MILANO FIR SEV TURB FCST WI N4459 E00932 - N4331 E01316 - N4345 E01055 - N4445 E00903 - N4459 E00932 ABV FL020 STNR NC=



MET'MAP, your aeronautical weather chart ! - Copyright ORBIFLY December 2007 - Disclaimer

ORBIFLY MET'MAP TEAM :

Programming & Development : Alexandra Zaïnal
Concept & Development : Baudouin d'Aumeries
Co-Development & Prog : Marc-Olivier Méhu
Technical & hardware support : Manuel Goepfert

Contact : metmap@orbifly.com




SOURCES & CREDITS :

   NOAA